createdAt,value
2023-02-14T00:45:21.541Z,100.00
2023-02-14T00:47:48.784Z,100.00
2023-02-14T00:50:15.761Z,100.00
2023-02-14T00:52:44.904Z,100.00
2023-02-14T00:55:12.037Z,100.00
2023-02-14T00:57:42.102Z,100.00
2023-02-14T01:00:15.521Z,100.00
2023-02-14T01:02:42.920Z,100.00
2023-02-14T01:05:27.774Z,100.00
2023-02-14T01:07:54.837Z,100.00
2023-02-14T01:10:24.863Z,100.00
2023-02-14T01:12:52.101Z,100.00
2023-02-14T01:15:18.966Z,100.00
2023-02-14T01:17:46.148Z,100.00
2023-02-14T01:20:24.026Z,100.00
2023-02-14T01:22:51.290Z,100.00
2023-02-14T01:25:19.435Z,100.00
2023-02-14T01:27:46.448Z,100.00
2023-02-14T01:30:19.688Z,100.00
2023-02-14T01:32:47.102Z,100.00
2023-02-14T01:35:14.275Z,100.00
2023-02-14T01:37:41.500Z,100.00
2023-02-14T01:40:17.557Z,100.00
2023-02-14T01:42:47.411Z,100.00
2023-02-14T01:45:43.374Z,100.00
2023-02-14T01:48:10.059Z,100.00
2023-02-14T01:50:45.703Z,100.00
2023-02-14T01:53:23.134Z,100.00
2023-02-14T01:55:57.264Z,100.00
2023-02-14T01:58:27.933Z,100.00
2023-02-14T02:00:58.010Z,100.00
2023-02-14T02:03:52.108Z,100.00
2023-02-14T02:06:43.528Z,100.00
2023-02-14T02:09:34.975Z,100.00
2023-02-14T02:33:53.135Z,100.00
2023-02-14T02:37:03.502Z,100.00
2023-02-14T02:40:04.323Z,100.00
2023-02-14T02:46:04.958Z,100.00
2023-02-14T02:48:57.721Z,100.00
2023-02-14T02:52:07.776Z,100.00
2023-02-14T02:54:44.872Z,100.00
2023-02-14T02:57:39.176Z,100.00
2023-02-14T03:00:09.102Z,100.00
2023-02-14T03:03:01.622Z,100.00
2023-02-14T03:05:35.267Z,100.00
2023-02-14T03:08:03.794Z,100.00
2023-02-14T03:10:33.864Z,100.00
2023-02-14T03:13:15.922Z,100.00
2023-02-14T03:15:58.091Z,100.00
2023-02-14T03:18:40.364Z,100.00
2023-02-14T03:21:15.634Z,100.00
2023-02-14T03:24:06.488Z,100.00
2023-02-14T03:26:57.318Z,100.00
2023-02-14T03:29:42.657Z,100.00
2023-02-14T03:32:33.968Z,100.00
2023-02-14T03:35:17.748Z,100.00
2023-02-14T03:37:55.792Z,100.00
2023-02-14T03:40:32.885Z,100.00
2023-02-14T03:43:29.285Z,100.00
2023-02-14T03:46:23.299Z,100.00
2023-02-14T03:48:52.977Z,100.00
2023-02-14T03:51:21.659Z,100.00
2023-02-14T03:53:52.326Z,100.00
2023-02-14T03:56:46.397Z,100.00
2023-02-14T03:59:22.815Z,100.00
2023-02-14T04:02:00.451Z,100.00
2023-02-14T04:04:31.293Z,100.00
2023-02-14T04:06:58.371Z,100.00
2023-02-14T04:09:25.413Z,100.00
2023-02-14T04:11:52.217Z,100.00
2023-02-14T04:14:19.128Z,100.00
2023-02-14T04:17:04.341Z,100.00
2023-02-14T04:19:33.432Z,100.00
2023-02-14T04:22:00.169Z,100.00
2023-02-14T04:24:27.109Z,100.00
2023-02-14T04:27:10.261Z,100.00
2023-02-14T04:29:47.304Z,100.00
2023-02-14T04:32:17.133Z,100.00
2023-02-14T04:34:44.287Z,100.00
2023-02-14T04:37:11.582Z,100.00
2023-02-14T04:39:38.871Z,100.00
2023-02-14T04:42:06.219Z,100.00
2023-02-14T04:44:34.540Z,100.00
2023-02-14T04:47:02.020Z,100.00
2023-02-14T04:49:28.851Z,100.00
2023-02-14T04:51:55.991Z,100.00
2023-02-14T04:54:22.898Z,100.00
2023-02-14T04:56:49.788Z,100.00
2023-02-14T04:59:17.051Z,100.00
2023-02-14T05:01:44.062Z,100.00
2023-02-14T05:04:11.076Z,100.00
2023-02-14T05:06:38.557Z,100.00
2023-02-14T05:09:20.871Z,100.00
2023-02-14T05:11:55.921Z,100.00
2023-02-14T05:14:28.199Z,100.00
2023-02-14T05:19:47.516Z,100.00
2023-02-14T05:22:16.867Z,100.00
2023-02-14T05:24:57.585Z,100.00
2023-02-14T05:27:32.495Z,100.00
2023-02-14T05:29:59.643Z,100.00
2023-02-14T05:32:29.566Z,100.00
2023-02-14T05:34:56.979Z,100.00
2023-02-14T05:43:14.843Z,100.00
2023-02-14T05:46:03.845Z,100.00
2023-02-14T05:48:32.732Z,100.00
2023-02-14T05:51:07.510Z,100.00
2023-02-14T05:53:35.362Z,100.00
2023-02-14T05:56:02.537Z,100.00
2023-02-14T05:58:32.489Z,100.00
2023-02-14T06:01:01.917Z,100.00
2023-02-14T06:03:29.039Z,100.00
2023-02-14T06:05:56.094Z,100.00
2023-02-14T06:08:40.821Z,95.61
2023-02-14T06:11:07.601Z,90.55
2023-02-14T06:13:41.620Z,90.40
2023-02-14T06:16:08.705Z,91.48
2023-02-14T06:18:35.583Z,92.21
2023-02-14T06:21:02.855Z,93.34
2023-02-14T06:23:29.806Z,94.69
2023-02-14T06:25:56.844Z,96.78
2023-02-14T06:28:23.894Z,97.12
2023-02-14T06:30:50.956Z,97.79
2023-02-14T06:33:18.120Z,99.69
2023-02-14T06:35:45.254Z,100.00
2023-02-14T06:38:12.265Z,99.75
2023-02-14T06:40:39.170Z,100.00
2023-02-14T06:43:06.165Z,100.00
2023-02-14T06:45:33.164Z,100.00
2023-02-14T06:48:00.378Z,100.00
2023-02-14T06:50:27.611Z,100.00
2023-02-14T06:52:54.497Z,100.00
2023-02-14T06:55:21.921Z,100.00
2023-02-14T06:57:48.852Z,100.00
2023-02-14T07:00:16.102Z,98.84
2023-02-14T07:02:44.352Z,97.42
2023-02-14T07:05:11.327Z,95.21
2023-02-14T07:07:38.159Z,94.35
2023-02-14T07:10:05.457Z,92.71
2023-02-14T07:12:35.461Z,94.59
2023-02-14T07:15:02.494Z,92.35
2023-02-14T07:17:29.450Z,90.35
2023-02-14T07:19:56.637Z,86.75
2023-02-14T07:22:23.409Z,84.56
2023-02-14T07:24:53.927Z,85.13
2023-02-14T07:27:20.991Z,85.25
2023-02-14T07:29:47.873Z,87.85
2023-02-14T07:32:15.107Z,88.35
2023-02-14T07:34:42.424Z,89.52
2023-02-14T07:37:09.373Z,92.48
2023-02-14T07:39:36.590Z,94.45
2023-02-14T07:42:03.439Z,96.10
2023-02-14T07:44:30.318Z,98.32
2023-02-14T07:46:57.471Z,99.50
2023-02-14T07:49:24.552Z,99.92
2023-02-14T07:51:51.294Z,99.25
2023-02-14T07:54:19.695Z,97.79
2023-02-14T07:56:47.311Z,98.08
2023-02-14T07:59:14.270Z,96.11
2023-02-14T08:01:41.405Z,94.97
2023-02-14T08:04:08.619Z,92.42
2023-02-14T08:06:35.479Z,91.88
2023-02-14T08:09:05.448Z,92.26
2023-02-14T08:11:51.076Z,90.99
2023-02-14T08:14:18.096Z,91.87
2023-02-14T08:16:44.999Z,92.16
2023-02-14T08:19:12.106Z,91.04
2023-02-14T08:21:39.333Z,90.34
2023-02-14T08:24:06.280Z,89.32
2023-02-14T08:26:33.642Z,87.66
2023-02-14T08:29:02.135Z,87.74
2023-02-14T08:31:36.322Z,87.13
2023-02-14T08:34:05.364Z,84.77
2023-02-14T08:36:34.925Z,84.58
2023-02-14T08:39:04.525Z,83.98
2023-02-14T08:41:32.434Z,85.00
2023-02-14T08:43:59.391Z,85.34
2023-02-14T08:46:26.362Z,84.31
2023-02-14T08:48:54.719Z,82.72
2023-02-14T08:51:22.992Z,81.53
2023-02-14T08:53:51.256Z,80.41
2023-02-14T08:56:19.601Z,78.15
2023-02-14T08:58:46.566Z,78.77
2023-02-14T09:01:16.115Z,79.02
2023-02-14T09:03:44.845Z,76.03
2023-02-14T09:06:17.699Z,74.48
2023-02-14T09:08:46.206Z,75.70
2023-02-14T09:11:24.755Z,75.66
2023-02-14T09:13:53.851Z,75.34
2023-02-14T09:16:21.701Z,75.76
2023-02-14T09:18:50.332Z,75.06
2023-02-14T09:21:20.303Z,74.96
2023-02-14T09:23:47.154Z,76.10
2023-02-14T09:26:16.454Z,77.40
2023-02-14T09:28:44.531Z,77.98
2023-02-14T09:31:16.943Z,77.16
2023-02-14T09:33:50.658Z,74.65
2023-02-14T09:36:20.161Z,72.07
2023-02-14T09:38:47.322Z,70.09
2023-02-14T09:41:30.054Z,69.57
2023-02-14T09:44:08.122Z,69.32
2023-02-14T09:46:55.901Z,68.17
2023-02-14T09:52:16.827Z,65.94
2023-02-14T09:54:51.304Z,65.43
2023-02-14T09:57:57.000Z,65.05
2023-02-14T10:00:40.652Z,66.67
2023-02-14T10:03:29.584Z,66.17
2023-02-14T10:06:05.678Z,65.38
2023-02-14T10:09:03.938Z,66.34
2023-02-14T10:11:37.815Z,66.84
2023-02-14T10:14:12.487Z,66.16
2023-02-14T10:16:51.718Z,67.21
2023-02-14T10:19:32.160Z,66.56
2023-02-14T10:22:15.134Z,66.09
2023-02-14T10:24:54.867Z,66.52
2023-02-14T10:27:46.926Z,66.60
2023-02-14T10:30:22.640Z,66.48
2023-02-14T10:33:00.116Z,67.24
2023-02-14T10:36:09.212Z,67.70
2023-02-14T10:38:56.898Z,67.77
2023-02-14T10:41:41.093Z,68.48
2023-02-14T10:44:53.503Z,65.87
2023-02-14T10:47:47.410Z,65.41
2023-02-14T10:50:26.972Z,64.35
2023-02-14T10:53:04.823Z,64.66
2023-02-14T10:55:57.840Z,64.74
2023-02-14T10:58:29.335Z,64.85
2023-02-14T11:01:18.461Z,63.73
2023-02-14T11:07:02.701Z,61.47
2023-02-14T11:09:29.874Z,61.62
2023-02-14T11:12:00.803Z,61.41
2023-02-14T11:14:31.805Z,60.06
2023-02-14T11:17:04.807Z,60.72
2023-02-14T11:19:37.237Z,60.11
2023-02-14T11:22:04.944Z,59.28
2023-02-14T11:24:48.921Z,59.43
2023-02-14T11:27:55.277Z,59.32
2023-02-14T11:30:34.093Z,57.94
2023-02-14T11:33:07.474Z,58.22
2023-02-14T11:35:35.106Z,57.80
2023-02-14T11:38:04.994Z,57.37
2023-02-14T11:40:40.493Z,57.49
2023-02-14T11:43:22.495Z,57.13
2023-02-14T11:45:50.556Z,56.46
2023-02-14T11:48:38.264Z,56.74
2023-02-14T11:51:10.478Z,56.57
2023-02-14T11:53:52.441Z,56.68
2023-02-14T11:56:21.472Z,57.00
2023-02-14T11:58:58.256Z,57.71
2023-02-14T12:01:39.212Z,56.49
2023-02-14T12:04:21.419Z,56.51
2023-02-14T12:06:48.714Z,56.82
2023-02-14T12:09:28.923Z,56.05
2023-02-14T12:12:04.869Z,56.12
2023-02-14T12:14:34.783Z,55.40
2023-02-14T12:17:24.122Z,54.84
2023-02-14T12:20:06.132Z,55.18
2023-02-14T12:23:11.748Z,56.15
2023-02-14T12:25:51.454Z,56.00
2023-02-14T12:28:35.707Z,56.60
2023-02-14T12:31:03.838Z,56.60
2023-02-14T12:33:50.717Z,56.86
2023-02-14T12:36:47.209Z,56.63
2023-02-14T12:39:23.434Z,57.52
2023-02-14T12:42:27.573Z,55.59
2023-02-14T12:45:09.790Z,55.20
2023-02-14T12:48:20.427Z,53.91
2023-02-14T12:51:13.621Z,53.90
2023-02-14T12:53:54.401Z,54.34
2023-02-14T12:56:49.435Z,54.54
2023-02-14T13:00:13.042Z,54.75
2023-02-14T13:03:53.432Z,54.79
2023-02-14T13:06:34.717Z,55.18
2023-02-14T13:09:11.634Z,54.64
2023-02-14T13:12:03.422Z,55.41
2023-02-14T13:15:10.184Z,55.22
2023-02-14T13:17:57.164Z,56.13
2023-02-14T13:20:59.411Z,57.70
2023-02-14T13:23:39.216Z,59.40
2023-02-14T13:26:18.188Z,60.10
2023-02-14T13:28:56.575Z,61.12
2023-02-14T13:31:27.482Z,61.87
2023-02-14T13:34:03.816Z,61.60
2023-02-14T13:36:42.405Z,62.04
2023-02-14T13:39:43.562Z,61.26
2023-02-14T13:42:11.615Z,61.55
2023-02-14T13:44:45.885Z,61.64
2023-02-14T13:47:27.127Z,61.69
2023-02-14T13:49:59.995Z,61.62
2023-02-14T13:53:18.955Z,61.28
2023-02-14T14:26:16.396Z,59.57
2023-02-14T14:28:51.916Z,60.02
2023-02-14T14:31:22.445Z,60.15
2023-02-14T14:34:04.220Z,60.21
2023-02-14T14:36:34.199Z,60.29
2023-02-14T14:39:22.157Z,60.96
2023-02-14T14:41:49.679Z,60.65
2023-02-14T14:44:28.758Z,61.45
2023-02-14T14:47:06.117Z,61.63
2023-02-14T14:49:33.327Z,61.15
2023-02-14T14:52:00.192Z,61.78
2023-02-14T14:55:06.455Z,62.03
2023-02-14T14:57:39.891Z,61.82
2023-02-14T15:00:31.944Z,62.34
2023-02-14T15:03:06.292Z,62.44
2023-02-14T15:05:54.490Z,62.79
2023-02-14T15:08:36.377Z,62.57
2023-02-14T15:11:07.946Z,63.01
2023-02-14T15:13:53.911Z,62.99
2023-02-14T15:16:49.790Z,63.80
2023-02-14T15:19:37.049Z,63.52
2023-02-14T15:22:36.410Z,64.52
2023-02-14T15:26:10.524Z,64.90
2023-02-14T15:28:45.140Z,64.95
2023-02-14T15:31:15.554Z,64.26
2023-02-14T15:33:45.581Z,64.05
2023-02-14T15:36:24.532Z,65.52
2023-02-14T15:38:53.817Z,65.17
2023-02-14T15:41:21.117Z,64.67
2023-02-14T15:43:57.119Z,65.17
2023-02-14T15:50:32.587Z,64.52
2023-02-14T15:56:26.607Z,66.09
2023-02-14T15:59:14.901Z,67.16
2023-02-14T16:10:38.442Z,65.59
2023-02-14T16:13:17.360Z,65.75
2023-02-14T16:16:08.606Z,65.72
2023-02-14T16:18:48.963Z,65.38
2023-02-14T16:21:22.303Z,66.13
2023-02-14T16:24:49.952Z,66.07
2023-02-14T16:27:17.106Z,66.02
2023-02-14T16:29:56.393Z,65.56
2023-02-14T16:32:28.760Z,65.58
2023-02-14T16:34:55.924Z,65.70
2023-02-14T16:37:40.966Z,65.82
2023-02-14T16:40:14.242Z,65.92
2023-02-14T16:42:48.205Z,66.06
2023-02-14T16:45:36.096Z,65.98
2023-02-14T16:48:06.406Z,67.22
2023-02-14T16:58:15.020Z,68.61
2023-02-14T17:00:42.729Z,68.19
2023-02-14T17:03:52.320Z,67.61
2023-02-14T17:06:38.377Z,67.84
2023-02-14T17:09:11.623Z,67.15
2023-02-14T17:11:46.128Z,66.60
2023-02-14T17:14:17.378Z,66.94
2023-02-14T17:16:44.632Z,66.87
2023-02-14T17:19:12.203Z,67.61
2023-02-14T17:22:09.353Z,68.90
2023-02-14T17:24:36.372Z,69.71
2023-02-14T17:27:03.558Z,70.15
2023-02-14T17:29:30.486Z,70.46
2023-02-14T17:31:58.002Z,70.13
2023-02-14T17:34:27.496Z,69.95
2023-02-14T17:36:54.280Z,70.33
2023-02-14T17:39:28.349Z,70.16
2023-02-14T17:42:04.812Z,69.81
2023-02-14T17:45:09.325Z,69.62
2023-02-14T17:47:36.297Z,70.19
2023-02-14T17:50:04.069Z,70.94
2023-02-14T17:52:31.417Z,70.81
2023-02-14T17:54:58.341Z,70.22
2023-02-14T17:57:25.660Z,70.66
2023-02-14T18:00:02.151Z,71.08
2023-02-14T18:02:29.370Z,71.83
2023-02-14T18:05:02.523Z,72.11
2023-02-14T18:07:59.432Z,72.61
2023-02-14T19:01:18.707Z,71.45
2023-02-14T19:03:46.107Z,72.59
2023-02-14T19:06:13.524Z,72.32
2023-02-14T19:08:42.123Z,72.95
2023-02-14T19:11:20.675Z,72.29
2023-02-14T19:13:51.008Z,72.52
2023-02-14T19:16:24.557Z,72.58
2023-02-14T19:18:53.366Z,72.77
2023-02-14T19:21:25.933Z,72.71
2023-02-14T19:23:58.291Z,72.12
2023-02-14T19:26:32.500Z,72.00
2023-02-14T19:29:05.305Z,71.91
2023-02-14T19:31:36.686Z,72.47
2023-02-14T19:37:05.212Z,72.80
2023-02-14T19:39:32.361Z,72.43
2023-02-14T19:41:59.800Z,72.65
2023-02-14T19:44:30.471Z,73.50
2023-02-14T19:47:00.221Z,73.37
2023-02-14T19:49:28.639Z,73.91
2023-02-14T19:51:56.958Z,73.52
2023-02-14T19:54:25.847Z,74.33
2023-02-14T19:56:53.907Z,73.53
2023-02-14T19:59:23.202Z,73.51
2023-02-14T20:01:56.857Z,73.64
2023-02-14T20:04:27.057Z,74.12
2023-02-14T20:06:55.029Z,75.40
2023-02-14T20:09:22.928Z,76.62
2023-02-14T20:11:53.053Z,76.94
2023-02-14T20:14:28.292Z,78.27
2023-02-14T20:16:58.289Z,78.33
2023-02-14T20:19:28.020Z,79.13
2023-02-14T20:21:57.761Z,79.30
2023-02-14T20:24:31.111Z,79.60
2023-02-14T20:27:00.699Z,79.61
2023-02-14T20:29:28.170Z,80.61
2023-02-14T20:32:00.198Z,81.83
2023-02-14T20:34:27.992Z,82.03
2023-02-14T20:36:56.133Z,81.81
2023-02-14T20:39:28.847Z,82.79
2023-02-14T20:41:55.549Z,82.38
2023-02-14T20:44:22.540Z,82.97
2023-02-14T20:46:51.952Z,83.25
2023-02-14T20:49:20.097Z,84.62
2023-02-14T20:51:49.750Z,84.28
2023-02-14T20:54:18.567Z,83.81
2023-02-14T20:56:46.527Z,83.52
2023-02-14T20:59:14.171Z,83.82
2023-02-14T21:01:41.307Z,84.86
2023-02-14T21:04:08.564Z,85.23
2023-02-14T21:06:39.656Z,86.41
2023-02-14T21:09:07.738Z,87.46
2023-02-14T21:11:34.880Z,88.99
2023-02-14T21:14:05.486Z,89.58
2023-02-14T21:16:33.458Z,89.39
2023-02-14T21:19:00.992Z,89.40
2023-02-14T21:21:34.971Z,90.17
2023-02-14T21:24:11.491Z,89.77
2023-02-14T21:26:40.164Z,89.03
2023-02-14T21:29:08.323Z,88.25
2023-02-14T21:31:36.004Z,88.88
2023-02-14T21:34:06.548Z,88.32
2023-02-14T21:36:37.025Z,88.61
2023-02-14T21:39:06.349Z,88.75
2023-02-14T21:41:34.858Z,88.47
2023-02-14T21:44:02.937Z,87.68
2023-02-14T21:46:36.486Z,88.71
2023-02-14T21:49:24.146Z,88.65
2023-02-14T21:51:51.633Z,88.52
2023-02-14T21:54:21.807Z,88.98
2023-02-14T21:56:50.166Z,89.49
2023-02-14T21:59:17.711Z,89.47
2023-02-14T22:01:44.759Z,90.68
2023-02-14T22:04:12.814Z,90.65
2023-02-14T22:06:41.416Z,90.64
2023-02-14T22:09:09.421Z,91.87
2023-02-14T22:11:36.206Z,93.15
2023-02-14T22:14:03.457Z,93.42
2023-02-14T22:16:30.582Z,93.96
2023-02-14T22:18:57.660Z,94.62
2023-02-14T22:21:33.636Z,96.40
2023-02-14T22:24:01.138Z,96.34
2023-02-14T22:26:31.228Z,97.26
2023-02-14T22:29:00.526Z,97.30
2023-02-14T22:31:32.191Z,98.82
2023-02-14T22:33:59.025Z,99.02
2023-02-14T22:36:25.979Z,98.32
2023-02-14T22:38:53.337Z,96.24
2023-02-14T22:41:22.606Z,95.15
2023-02-14T22:43:49.749Z,94.60
2023-02-14T22:46:20.115Z,94.15
2023-02-14T22:48:48.792Z,93.75
2023-02-14T22:51:33.966Z,94.27
2023-02-14T22:54:07.117Z,94.89
2023-02-14T22:56:37.485Z,94.19
2023-02-14T22:59:07.932Z,95.01
2023-02-14T23:01:35.812Z,95.63
2023-02-14T23:04:04.347Z,95.88
2023-02-14T23:06:33.907Z,97.06
2023-02-14T23:09:05.428Z,97.77
2023-02-14T23:11:33.692Z,98.14
2023-02-14T23:14:19.591Z,97.98
2023-02-14T23:17:05.585Z,96.77
2023-02-14T23:19:52.854Z,97.41
2023-02-14T23:22:30.552Z,98.22
2023-02-14T23:25:00.062Z,98.05
2023-02-14T23:27:36.428Z,98.85
2023-02-14T23:30:05.791Z,98.00
2023-02-14T23:32:32.967Z,97.67
2023-02-14T23:35:00.192Z,97.16
2023-02-14T23:37:27.602Z,96.82
2023-02-14T23:39:54.536Z,97.43
2023-02-14T23:42:21.363Z,97.07
2023-02-14T23:44:50.394Z,97.63
2023-02-14T23:47:17.561Z,96.46
2023-02-14T23:49:47.028Z,95.47
2023-02-14T23:52:14.328Z,96.28
2023-02-14T23:54:41.538Z,95.60
2023-02-14T23:57:09.149Z,95.50
2023-02-14T23:59:36.150Z,95.68
